createdAt,value
2019-03-01T00:03:44.877Z,16.26
2019-03-01T00:08:53.125Z,16.28
2019-03-01T00:14:01.355Z,16.63
2019-03-01T00:19:09.615Z,17.60
2019-03-01T00:24:17.897Z,17.63
2019-03-01T00:29:26.118Z,18.99
2019-03-01T00:34:34.596Z,18.14
2019-03-01T00:39:42.985Z,18.89
2019-03-01T00:44:51.392Z,19.84
2019-03-01T00:49:59.630Z,19.25
2019-03-01T00:55:07.957Z,21.86
2019-03-01T01:00:17.134Z,19.97
2019-03-01T01:05:25.421Z,20.24
2019-03-01T01:10:33.508Z,20.50
2019-03-01T01:15:42.050Z,21.49
2019-03-01T01:20:50.161Z,21.79
2019-03-01T01:25:58.401Z,23.48
2019-03-01T01:31:06.661Z,23.50
2019-03-01T01:36:15.050Z,23.85
2019-03-01T01:41:23.278Z,26.58
2019-03-01T01:46:31.458Z,25.97
2019-03-01T01:51:39.611Z,25.56
2019-03-01T01:56:47.842Z,26.48
2019-03-01T02:01:56.454Z,26.21
2019-03-01T02:07:04.673Z,25.10
2019-03-01T02:12:12.780Z,27.63
2019-03-01T02:17:21.440Z,28.07
2019-03-01T02:22:29.608Z,28.56
2019-03-01T02:27:37.909Z,28.15
2019-03-01T02:32:46.120Z,27.68
2019-03-01T02:37:54.400Z,25.72
2019-03-01T02:43:02.682Z,27.19
2019-03-01T02:48:10.814Z,25.89
2019-03-01T02:53:19.143Z,24.40
2019-03-01T02:58:27.326Z,25.50
2019-03-01T03:03:35.528Z,25.04
2019-03-01T03:08:43.837Z,25.36
2019-03-01T03:13:52.088Z,23.84
2019-03-01T03:19:00.705Z,25.55
2019-03-01T03:24:08.986Z,28.87
2019-03-01T03:29:17.161Z,28.06
2019-03-01T03:34:25.398Z,25.91
2019-03-01T03:39:33.612Z,27.86
2019-03-01T03:44:41.928Z,27.31
2019-03-01T03:49:50.323Z,27.13
2019-03-01T03:54:58.619Z,26.30
2019-03-01T04:00:06.843Z,26.51
2019-03-01T04:05:15.622Z,25.77
2019-03-01T04:10:24.007Z,26.69
2019-03-01T04:15:32.302Z,28.64
2019-03-01T04:20:41.190Z,28.56
2019-03-01T04:25:50.199Z,28.66
2019-03-01T04:30:58.450Z,27.87
2019-03-01T04:36:06.656Z,27.52
2019-03-01T04:41:15.047Z,25.36
2019-03-01T04:46:23.955Z,25.48
2019-03-01T04:51:39.874Z,24.30
2019-03-01T04:56:40.047Z,25.98
2019-03-01T05:01:48.331Z,26.23
2019-03-01T05:06:56.630Z,26.87
2019-03-01T05:12:05.590Z,23.95
2019-03-01T05:17:13.857Z,22.47
2019-03-01T05:22:22.098Z,21.13
2019-03-01T05:27:30.325Z,18.90
2019-03-01T05:32:38.763Z,18.92
2019-03-01T05:37:47.045Z,20.72
2019-03-01T05:42:55.959Z,20.69
2019-03-01T05:48:04.219Z,21.66
2019-03-01T05:53:12.516Z,20.78
2019-03-01T05:58:21.070Z,19.99
2019-03-01T06:03:29.910Z,17.29
2019-03-01T06:08:38.181Z,16.70
2019-03-01T06:13:46.501Z,16.66
2019-03-01T06:18:54.707Z,17.61
2019-03-01T06:24:02.942Z,15.93
2019-03-01T06:29:11.549Z,15.60
2019-03-01T06:34:19.659Z,13.88
2019-03-01T06:39:28.007Z,13.05
2019-03-01T06:44:36.889Z,14.27
2019-03-01T06:49:45.662Z,13.96
2019-03-01T06:54:54.325Z,11.55
2019-03-01T07:00:06.080Z,11.29
2019-03-01T07:05:04.278Z,11.31
2019-03-01T07:10:12.610Z,10.78
2019-03-01T07:15:20.825Z,10.70
2019-03-01T07:20:29.113Z,10.96
2019-03-01T07:25:37.591Z,10.25
2019-03-01T07:30:45.736Z,10.77
2019-03-01T07:35:54.710Z,11.15
2019-03-01T07:41:02.845Z,12.14
2019-03-01T07:46:11.493Z,12.75
2019-03-01T07:51:19.546Z,12.19
2019-03-01T07:56:27.734Z,12.40
2019-03-01T08:01:37.737Z,12.21
2019-03-01T08:06:48.844Z,10.14
2019-03-01T08:11:53.655Z,8.18
2019-03-01T08:17:01.874Z,6.07
2019-03-01T08:22:10.038Z,6.48
2019-03-01T08:27:18.261Z,6.41
2019-03-01T08:32:27.506Z,7.21
2019-03-01T08:37:34.026Z,7.43
2019-03-01T08:42:42.107Z,6.99
2019-03-01T08:47:50.518Z,5.20
2019-03-01T08:52:58.685Z,5.78
2019-03-01T08:58:07.032Z,7.48
2019-03-01T09:03:16.306Z,10.49
2019-03-01T09:08:22.925Z,6.30
2019-03-01T09:13:29.346Z,5.36
2019-03-01T09:18:37.861Z,5.96
2019-03-01T09:23:48.045Z,4.85
2019-03-01T09:28:52.248Z,5.04
2019-03-01T09:34:00.791Z,4.48
2019-03-01T09:39:09.244Z,3.88
2019-03-01T09:44:17.478Z,3.92
2019-03-01T09:49:25.645Z,4.60
2019-03-01T09:54:33.742Z,5.01
2019-03-01T09:59:42.053Z,4.67
2019-03-01T10:04:50.265Z,3.87
2019-03-01T10:09:59.049Z,3.49
2019-03-01T10:15:07.950Z,4.17
2019-03-01T10:20:16.181Z,3.65
2019-03-01T10:25:25.206Z,3.52
2019-03-01T10:30:33.768Z,6.04
2019-03-01T10:35:41.991Z,29.85
2019-03-01T10:40:50.228Z,4.66
2019-03-01T10:45:59.026Z,4.12
2019-03-01T10:51:07.382Z,4.68
2019-03-01T10:56:15.573Z,3.82
2019-03-01T11:01:23.978Z,3.92
2019-03-01T11:06:32.158Z,4.05
2019-03-01T11:11:41.269Z,3.93
2019-03-01T11:16:48.013Z,3.90
2019-03-01T11:21:56.207Z,4.44
2019-03-01T11:27:12.652Z,4.95
2019-03-01T11:32:12.698Z,4.48
2019-03-01T11:37:20.869Z,4.80
2019-03-01T11:42:29.166Z,3.79
2019-03-01T11:47:37.676Z,4.56
2019-03-01T11:52:46.033Z,3.57
2019-03-01T11:57:56.753Z,3.81
2019-03-01T12:02:55.175Z,3.56
2019-03-01T12:08:03.213Z,3.04
2019-03-01T12:13:11.384Z,3.71
2019-03-01T12:18:19.447Z,3.94
2019-03-01T12:23:27.653Z,3.39
2019-03-01T12:28:35.834Z,3.41
2019-03-01T12:33:43.995Z,3.74
2019-03-01T12:38:52.250Z,3.03
2019-03-01T12:44:00.479Z,3.08
2019-03-01T12:49:08.838Z,3.91
2019-03-01T12:54:17.077Z,2.83
2019-03-01T12:59:25.574Z,3.19
2019-03-01T13:04:33.818Z,3.74
2019-03-01T13:09:42.022Z,15.29
2019-03-01T13:14:50.291Z,4.30
2019-03-01T13:20:00.996Z,4.28
2019-03-01T13:25:06.094Z,4.38
2019-03-01T13:30:14.329Z,3.59
2019-03-01T13:35:25.984Z,4.16
2019-03-01T13:40:30.061Z,3.91
2019-03-01T13:45:38.348Z,4.03
2019-03-01T13:50:46.577Z,3.41
2019-03-01T13:55:56.443Z,3.69
2019-03-01T14:01:02.314Z,3.55
2019-03-01T14:06:10.402Z,3.88
2019-03-01T14:11:21.622Z,4.68
2019-03-01T14:16:26.246Z,5.10
2019-03-01T14:21:34.439Z,5.01
2019-03-01T14:26:42.532Z,4.61
2019-03-01T14:31:50.689Z,4.33
2019-03-01T14:36:59.147Z,4.93
2019-03-01T14:42:10.871Z,4.57
2019-03-01T14:47:14.976Z,4.50
2019-03-01T14:52:23.203Z,4.75
2019-03-01T14:57:32.135Z,4.58
2019-03-01T15:02:40.780Z,4.02
2019-03-01T15:07:48.089Z,4.85
2019-03-01T15:12:57.777Z,3.89
2019-03-01T15:18:03.859Z,3.90
2019-03-01T15:23:11.958Z,3.82
2019-03-01T15:28:20.163Z,4.41
2019-03-01T15:33:28.275Z,3.91
2019-03-01T15:38:36.514Z,3.97
2019-03-01T15:43:44.649Z,4.36
2019-03-01T15:48:52.990Z,3.56
2019-03-01T15:54:01.896Z,4.90
2019-03-01T15:59:09.517Z,4.22
2019-03-01T16:04:16.627Z,5.28
2019-03-01T16:09:25.319Z,4.18
2019-03-01T16:14:32.313Z,3.75
2019-03-01T16:19:41.780Z,4.18
2019-03-01T16:24:48.024Z,5.13
2019-03-01T16:29:56.465Z,4.33
2019-03-01T16:35:04.657Z,4.42
2019-03-01T16:40:13.076Z,4.10
2019-03-01T16:45:21.952Z,4.38
2019-03-01T16:50:29.040Z,5.08
2019-03-01T16:55:37.209Z,4.07
2019-03-01T17:00:45.411Z,4.31
2019-03-01T17:05:55.096Z,4.39
2019-03-01T17:11:02.581Z,5.18
2019-03-01T17:16:09.230Z,5.86
2019-03-01T17:21:17.459Z,4.33
2019-03-01T17:26:26.253Z,4.80
2019-03-01T17:31:33.422Z,4.92
2019-03-01T17:36:42.176Z,5.78
2019-03-01T17:41:50.662Z,5.04
2019-03-01T17:46:58.841Z,4.20
2019-03-01T17:52:07.035Z,4.11
2019-03-01T17:57:15.190Z,5.16
2019-03-01T18:02:23.398Z,4.82
2019-03-01T18:07:32.116Z,5.05
2019-03-01T18:12:40.495Z,6.32
2019-03-01T18:17:48.699Z,4.62
2019-03-01T18:22:59.325Z,4.27
2019-03-01T18:28:04.525Z,5.43
2019-03-01T18:33:12.803Z,5.94
2019-03-01T18:38:21.187Z,5.61
2019-03-01T18:43:29.435Z,5.03
2019-03-01T18:48:40.603Z,6.71
2019-03-01T18:53:45.678Z,6.03
2019-03-01T18:58:53.843Z,4.63
2019-03-01T19:04:02.130Z,6.04
2019-03-01T19:09:12.611Z,4.32
2019-03-01T19:14:18.474Z,4.24
2019-03-01T19:19:29.876Z,5.33
2019-03-01T19:24:42.847Z,5.30
2019-03-01T19:29:42.588Z,4.86
2019-03-01T19:34:52.788Z,5.31
2019-03-01T19:39:58.571Z,5.54
2019-03-01T19:45:06.853Z,9.03
2019-03-01T19:50:15.857Z,5.76
2019-03-01T19:55:24.180Z,4.99
2019-03-01T20:00:33.360Z,6.01
2019-03-01T20:05:42.648Z,8.32
2019-03-01T20:10:51.882Z,10.75
2019-03-01T20:16:00.486Z,6.05
2019-03-01T20:21:09.462Z,5.41
2019-03-01T20:26:16.657Z,4.87
2019-03-01T20:31:24.857Z,4.47
2019-03-01T20:36:33.129Z,6.12
2019-03-01T20:41:46.158Z,7.12
2019-03-01T20:46:49.180Z,6.30
2019-03-01T20:51:58.706Z,6.22
2019-03-01T20:54:26.020Z,6.80
2019-03-01T20:59:22.989Z,6.25
2019-03-01T21:04:31.213Z,5.31
2019-03-01T21:09:40.524Z,7.41
2019-03-01T21:14:47.489Z,6.13
2019-03-01T21:19:56.069Z,6.43
2019-03-01T21:25:04.573Z,5.59
2019-03-01T21:30:12.338Z,4.83
2019-03-01T21:35:20.503Z,4.88
2019-03-01T21:40:31.433Z,5.14
2019-03-01T21:45:37.781Z,4.49
2019-03-01T21:50:46.087Z,3.94
2019-03-01T21:55:54.261Z,4.23
2019-03-01T22:01:05.601Z,3.53
2019-03-01T22:06:10.399Z,4.25
2019-03-01T22:11:20.778Z,3.30
2019-03-01T22:16:26.573Z,3.81
2019-03-01T22:21:35.367Z,2.98
2019-03-01T22:26:46.708Z,3.40
2019-03-01T22:31:51.919Z,3.15
2019-03-01T22:37:00.068Z,3.43
2019-03-01T22:42:08.146Z,3.36
2019-03-01T22:47:16.270Z,3.10
2019-03-01T22:52:26.731Z,3.45
2019-03-01T22:57:32.323Z,3.08
2019-03-01T23:02:43.554Z,3.45
2019-03-01T23:07:48.523Z,3.13
2019-03-01T23:12:56.830Z,4.04
2019-03-01T23:18:05.648Z,3.14
2019-03-01T23:23:13.105Z,3.45
2019-03-01T23:28:21.409Z,3.11
2019-03-01T23:33:31.577Z,3.19
2019-03-01T23:38:37.601Z,3.32
2019-03-01T23:43:46.090Z,3.31
2019-03-01T23:48:54.233Z,3.61
2019-03-01T23:54:05.755Z,3.16
2019-03-01T23:59:10.206Z,3.12
